Time;durP1;ratioP1;P1;durP2;ratioP2;P2;SDS_P1;SDS_P2;PMS_P1;PMS_P2;Temp;Humidity;BMP_temperature;BMP_pressure;BME280_temperature;BME280_humidity;BME280_pressure;Samples;Min_cycle;Max_cycle;Signal;HPM_P1;HPM_P2
2021/05/11 00:00:34;;;;;;;3.08;1.40;;;24.70;38.90;;;;;;5074404;28;20064;-54
2021/05/11 00:03:00;;;;;;;1.92;1.02;;;24.70;38.80;;;;;;5074228;28;20036;-54
2021/05/11 00:05:30;;;;;;;3.42;1.27;;;24.70;38.90;;;;;;5073914;28;20063;-55
2021/05/11 00:07:57;;;;;;;2.33;1.00;;;24.70;38.80;;;;;;5089884;28;20051;-54
2021/05/11 00:10:24;;;;;;;2.25;0.98;;;24.70;38.90;;;;;;5074401;28;20075;-54
2021/05/11 00:12:51;;;;;;;3.10;1.30;;;24.70;38.90;;;;;;5074664;28;20032;-54
2021/05/11 00:15:18;;;;;;;2.15;1.08;;;24.70;39.00;;;;;;5074355;28;20169;-54
2021/05/11 00:17:46;;;;;;;3.08;1.13;;;24.70;38.90;;;;;;5074087;28;20033;-54
2021/05/11 00:20:13;;;;;;;2.72;1.15;;;24.70;39.60;;;;;;5073013;28;20036;-54
2021/05/11 00:22:40;;;;;;;2.28;1.10;;;24.70;39.60;;;;;;5074055;28;20131;-53
2021/05/11 00:25:06;;;;;;;2.13;1.10;;;24.70;39.10;;;;;;5074288;28;20063;-56
2021/05/11 00:27:32;;;;;;;2.30;1.10;;;24.70;39.10;;;;;;5073706;28;20031;-54
2021/05/11 00:29:58;;;;;;;1.10;0.90;;;24.70;39.10;;;;;;5074418;28;20040;-54
2021/05/11 00:32:24;;;;;;;4.03;1.15;;;24.70;39.20;;;;;;5073662;28;20386;-55
2021/05/11 00:34:50;;;;;;;2.63;0.93;;;24.70;39.20;;;;;;5073862;28;20102;-54
2021/05/11 00:37:16;;;;;;;2.50;1.15;;;24.70;39.20;;;;;;5074021;28;20037;-54
2021/05/11 00:39:42;;;;;;;1.58;1.33;;;24.70;39.30;;;;;;5073202;28;20111;-54
2021/05/11 00:42:08;;;;;;;3.10;0.75;;;24.60;39.20;;;;;;5074033;28;20108;-54
2021/05/11 00:44:34;;;;;;;2.17;1.00;;;24.70;39.30;;;;;;5055762;28;20082;-54
2021/05/11 00:47:02;;;;;;;2.10;0.95;;;24.60;39.30;;;;;;5073533;28;20032;-54
2021/05/11 00:49:30;;;;;;;2.28;0.90;;;24.70;39.40;;;;;;5073977;28;20075;-54
2021/05/11 00:51:57;;;;;;;1.38;0.90;;;24.70;39.50;;;;;;5073567;28;20035;-54
2021/05/11 00:54:24;;;;;;;2.17;0.70;;;24.70;39.50;;;;;;5073878;28;20105;-54
2021/05/11 00:56:50;;;;;;;1.15;0.70;;;24.70;39.50;;;;;;5073725;28;20098;-55
2021/05/11 00:59:20;;;;;;;3.78;1.20;;;24.70;39.50;;;;;;5073240;28;20471;-55
2021/05/11 01:01:46;;;;;;;2.63;1.10;;;24.70;39.60;;;;;;5072595;28;20040;-55
2021/05/11 01:04:12;;;;;;;1.65;0.95;;;24.70;40.20;;;;;;5072953;28;20040;-55
2021/05/11 01:06:39;;;;;;;2.67;1.00;;;24.70;39.60;;;;;;5073096;28;20025;-54
2021/05/11 01:09:05;;;;;;;2.03;1.02;;;24.60;39.50;;;;;;5072876;28;20032;-54
2021/05/11 01:11:33;;;;;;;3.15;1.10;;;24.60;39.60;;;;;;5073577;28;20093;-54
2021/05/11 01:14:00;;;;;;;2.42;1.10;;;24.60;39.60;;;;;;5073218;28;20058;-54
2021/05/11 01:16:28;;;;;;;4.35;1.30;;;24.60;39.60;;;;;;5073276;28;20485;-54
2021/05/11 01:19:00;;;;;;;4.13;0.77;;;24.60;39.60;;;;;;5073160;28;20036;-54
2021/05/11 01:21:39;;;;;;;2.88;0.93;;;24.60;39.60;;;;;;5084412;28;20028;-54
2021/05/11 01:24:09;;;;;;;3.92;0.93;;;24.60;39.70;;;;;;5092257;28;20028;-55
2021/05/11 01:29:34;;;;;;;2.45;1.13;;;24.60;39.70;;;;;;5072937;28;20063;-55
2021/05/11 01:32:36;;;;;;;2.00;0.93;;;24.60;39.70;;;;;;5088303;28;20047;-54
2021/05/11 01:58:59;;;;;;;1.77;1.00;;;24.50;39.80;;;;;;5072538;28;20040;-54
2021/05/11 02:23:29;;;;;;;1.52;0.70;;;24.40;39.50;;;;;;5054342;28;20037;-54
2021/05/11 02:25:58;;;;;;;1.33;0.73;;;24.40;39.50;;;;;;5053819;28;20036;-54
2021/05/11 02:28:24;;;;;;;2.75;0.90;;;24.40;39.60;;;;;;5072046;28;20039;-54
2021/05/11 02:30:52;;;;;;;2.63;1.00;;;24.40;39.40;;;;;;5071875;28;20063;-54
2021/05/11 02:33:19;;;;;;;2.72;0.95;;;24.40;39.30;;;;;;5072252;28;20037;-54
2021/05/11 02:35:48;;;;;;;1.63;0.80;;;24.40;39.20;;;;;;5071035;28;20497;-54
2021/05/11 02:38:14;;;;;;;4.30;1.05;;;24.30;39.20;;;;;;5071751;28;20107;-54
2021/05/11 02:40:40;;;;;;;2.53;0.85;;;24.30;39.20;;;;;;5072248;28;20029;-54
2021/05/11 02:43:27;;;;;;;1.85;0.65;;;24.30;39.20;;;;;;5053864;28;20541;-54
2021/05/11 02:45:53;;;;;;;3.25;0.73;;;24.30;39.00;;;;;;5071742;28;20036;-54
2021/05/11 02:48:19;;;;;;;4.43;1.00;;;24.30;39.00;;;;;;5071474;28;20094;-54
2021/05/11 02:50:45;;;;;;;2.20;0.90;;;24.30;39.00;;;;;;5071248;28;20044;-54
2021/05/11 02:53:11;;;;;;;2.25;0.75;;;24.30;38.90;;;;;;5071536;28;20131;-53
2021/05/11 02:55:37;;;;;;;4.80;1.00;;;24.30;38.90;;;;;;5053539;28;20068;-53
2021/05/11 02:58:03;;;;;;;1.67;0.82;;;24.30;38.90;;;;;;5071317;28;20550;-53
2021/05/11 03:00:29;;;;;;;2.53;1.00;;;24.30;38.90;;;;;;5071380;28;20033;-53
2021/05/11 03:02:56;;;;;;;1.88;0.80;;;24.30;39.50;;;;;;5053701;28;20391;-54
2021/05/11 03:05:23;;;;;;;1.40;0.80;;;24.30;38.90;;;;;;5071247;28;20032;-54
2021/05/11 03:07:49;;;;;;;1.52;0.70;;;24.20;39.00;;;;;;5071348;28;20094;-55
2021/05/11 03:10:16;;;;;;;1.13;0.50;;;24.20;39.00;;;;;;5071483;28;20062;-54
2021/05/11 03:12:43;;;;;;;2.22;0.90;;;24.30;39.10;;;;;;5071360;28;20043;-54
2021/05/11 03:15:09;;;;;;;1.38;0.60;;;24.30;39.10;;;;;;5086994;28;20040;-54
2021/05/11 03:17:36;;;;;;;3.03;1.05;;;24.20;39.00;;;;;;5053359;28;20049;-54
2021/05/11 03:20:04;;;;;;;3.88;1.30;;;24.20;39.00;;;;;;5071361;28;20040;-55
2021/05/11 03:22:31;;;;;;;2.13;0.77;;;24.20;38.90;;;;;;5070962;28;20135;-55
2021/05/11 03:24:57;;;;;;;1.58;0.60;;;24.20;38.80;;;;;;5074926;28;20041;-54
2021/05/11 03:27:23;;;;;;;4.03;1.00;;;24.20;38.90;;;;;;5075739;28;20032;-55
2021/05/11 03:29:49;;;;;;;1.35;0.70;;;24.20;39.00;;;;;;5075274;28;20037;-54
2021/05/11 03:32:15;;;;;;;2.08;1.02;;;24.20;39.00;;;;;;5075548;28;20032;-54
2021/05/11 03:34:41;;;;;;;1.15;0.63;;;24.20;39.00;;;;;;5074864;28;20041;-54
2021/05/11 03:37:08;;;;;;;2.83;0.73;;;24.20;39.00;;;;;;5074920;28;20047;-55
2021/05/11 03:39:41;;;;;;;1.75;0.60;;;24.20;39.10;;;;;;5075532;28;20503;-55
2021/05/11 03:42:33;;;;;;;0.90;0.57;;;24.20;39.10;;;;;;5075688;28;20195;-55
2021/05/11 03:45:02;;;;;;;2.15;0.82;;;24.20;39.10;;;;;;5075144;28;20045;-55
2021/05/11 03:47:29;;;;;;;1.15;0.90;;;24.20;39.10;;;;;;5074810;28;20048;-55
2021/05/11 03:49:55;;;;;;;1.80;0.73;;;24.20;39.20;;;;;;5074711;28;20052;-55
2021/05/11 03:52:21;;;;;;;1.63;0.85;;;24.20;39.20;;;;;;5074953;28;20071;-54
2021/05/11 03:54:47;;;;;;;1.42;0.80;;;24.10;39.10;;;;;;5075115;28;20037;-54
2021/05/11 03:57:13;;;;;;;6.60;1.48;;;24.10;39.20;;;;;;5074753;28;20044;-54
2021/05/11 03:59:39;;;;;;;1.60;0.70;;;24.20;39.20;;;;;;5074164;28;20043;-54
2021/05/11 04:02:05;;;;;;;3.05;1.00;;;24.20;39.30;;;;;;5074473;28;20044;-54
2021/05/11 04:04:32;;;;;;;2.15;0.77;;;24.10;39.20;;;;;;5074332;28;20044;-58
2021/05/11 04:06:58;;;;;;;1.48;0.80;;;24.10;39.20;;;;;;5074834;28;20089;-54
2021/05/11 04:09:35;;;;;;;1.67;0.80;;;24.10;39.30;;;;;;5074630;28;20035;-54
2021/05/11 04:17:45;;;;;;;2.08;1.00;;;24.10;39.20;;;;;;5012346;28;20060;-55
2021/05/11 04:20:12;;;;;;;1.40;0.73;;;24.10;39.20;;;;;;5012172;28;20092;-54
2021/05/11 04:22:39;;;;;;;1.02;0.65;;;24.10;39.30;;;;;;5012091;28;20038;-54
2021/05/11 04:25:06;;;;;;;1.13;0.80;;;24.00;39.30;;;;;;4996024;28;20037;-54
2021/05/11 04:27:32;;;;;;;4.13;1.30;;;24.00;39.40;;;;;;5012304;28;20045;-55
2021/05/11 04:30:01;;;;;;;2.90;0.90;;;24.00;39.40;;;;;;4995328;28;20044;-55
2021/05/11 04:32:27;;;;;;;3.10;0.98;;;24.00;39.40;;;;;;5011868;28;20049;-54
2021/05/11 04:34:53;;;;;;;2.70;0.80;;;24.00;39.40;;;;;;5011450;28;20054;-54
2021/05/11 04:37:19;;;;;;;1.63;0.80;;;24.00;39.40;;;;;;5011674;28;20507;-54
2021/05/11 04:39:45;;;;;;;2.13;1.00;;;24.00;39.50;;;;;;5013565;28;20121;-55
2021/05/11 04:42:11;;;;;;;2.50;1.15;;;24.00;39.50;;;;;;5012258;28;20077;-55
2021/05/11 04:44:39;;;;;;;2.15;0.75;;;24.00;39.50;;;;;;5024645;28;20038;-55
2021/05/11 04:48:05;;;;;;;1.67;0.80;;;24.00;39.50;;;;;;5012065;28;20105;-55
2021/05/11 04:50:00;;;;;;;1.48;0.63;;;24.00;39.50;;;;;;5024761;28;20075;-55
2021/05/11 04:52:26;;;;;;;1.90;0.80;;;24.00;39.50;;;;;;5074140;28;20136;-55
2021/05/11 04:54:52;;;;;;;1.65;0.77;;;24.00;39.50;;;;;;5055392;28;20446;-55
2021/05/11 04:57:18;;;;;;;1.25;0.60;;;24.00;39.50;;;;;;5073784;28;20397;-55
2021/05/11 04:59:44;;;;;;;1.55;0.85;;;24.00;39.50;;;;;;5073641;28;20036;-55
2021/05/11 05:02:11;;;;;;;1.75;0.73;;;23.90;39.50;;;;;;5072895;28;20091;-55
2021/05/11 05:04:38;;;;;;;2.38;0.80;;;23.90;39.50;;;;;;5073188;28;20398;-55
2021/05/11 05:07:04;;;;;;;1.70;1.00;;;23.90;39.40;;;;;;5072786;28;20532;-54
2021/05/11 05:09:30;;;;;;;2.83;1.98;;;23.90;39.50;;;;;;5055125;28;20033;-54
2021/05/11 05:11:56;;;;;;;4.28;3.13;;;24.00;39.50;;;;;;5073108;28;20033;-54
2021/05/11 05:14:22;;;;;;;5.55;4.20;;;23.90;39.50;;;;;;5072944;28;20047;-54
2021/05/11 05:16:48;;;;;;;6.20;5.13;;;23.90;39.50;;;;;;5054998;28;20055;-53
2021/05/11 05:19:14;;;;;;;8.68;5.68;;;23.90;39.50;;;;;;5061581;28;20063;-54
2021/05/11 05:21:41;;;;;;;5.90;4.63;;;23.90;39.50;;;;;;5070729;28;20118;-53
2021/05/11 05:24:25;;;;;;;6.25;4.95;;;23.90;39.60;;;;;;5072935;28;20032;-53
2021/05/11 05:26:52;;;;;;;9.63;6.03;;;23.90;39.60;;;;;;5072778;28;20029;-54
2021/05/11 05:29:18;;;;;;;7.97;5.50;;;23.90;39.60;;;;;;5072541;28;20122;-54
2021/05/11 05:31:44;;;;;;;7.00;5.95;;;23.90;39.60;;;;;;5072810;28;20087;-54
2021/05/11 05:34:10;;;;;;;10.23;8.45;;;23.90;39.60;;;;;;5080627;28;20047;-54
2021/05/11 05:36:36;;;;;;;7.22;6.53;;;23.90;39.60;;;;;;5092851;28;20100;-53
2021/05/11 05:39:03;;;;;;;7.25;6.18;;;23.90;39.70;;;;;;5093188;28;20036;-54
2021/05/11 05:41:31;;;;;;;9.75;7.78;;;23.90;39.70;;;;;;5086632;28;20048;-54
2021/05/11 05:43:58;;;;;;;9.73;7.40;;;23.90;39.70;;;;;;5072549;28;20072;-54
2021/05/11 05:46:24;;;;;;;11.45;9.00;;;23.90;39.70;;;;;;5072149;28;20047;-54
2021/05/11 05:48:50;;;;;;;9.88;8.32;;;23.90;39.70;;;;;;5072640;28;20096;-54
2021/05/11 05:51:19;;;;;;;9.13;7.78;;;23.90;39.70;;;;;;5076365;28;20035;-54
2021/05/11 05:53:44;;;;;;;9.68;7.68;;;23.90;39.70;;;;;;5092757;28;20032;-54
2021/05/11 05:56:15;;;;;;;11.00;8.35;;;23.90;39.70;;;;;;5077373;28;20045;-52
2021/05/11 05:58:42;;;;;;;12.07;7.25;;;23.90;39.70;;;;;;5088701;28;20137;-53
2021/05/11 06:01:09;;;;;;;9.38;6.45;;;23.90;39.60;;;;;;5086959;28;20033;-53
2021/05/11 06:06:12;;;;;;;18.83;12.43;;;23.90;39.10;;;;;;5058139;28;20044;-53
2021/05/11 06:08:41;;;;;;;16.80;12.35;;;23.80;39.50;;;;;;5070675;28;20134;-52
2021/05/11 06:13:41;;;;;;;12.23;7.57;;;23.80;38.80;;;;;;5072139;28;20553;-53
2021/05/11 06:18:52;;;;;;;9.65;4.82;;;23.80;38.90;;;;;;5054052;28;20015;-53
2021/05/11 06:21:18;;;;;;;10.07;4.30;;;23.80;38.40;;;;;;5071531;28;20036;-53
2021/05/11 06:23:44;;;;;;;4.78;2.42;;;23.80;38.30;;;;;;5071318;28;20474;-53
2021/05/11 06:26:12;;;;;;;5.35;2.30;;;23.80;38.30;;;;;;5052830;28;20351;-52
2021/05/11 06:28:40;;;;;;;10.43;2.47;;;23.80;38.30;;;;;;5053245;28;20036;-55
2021/05/11 06:31:07;;;;;;;3.90;2.22;;;23.70;38.20;;;;;;5052912;28;20037;-56
2021/05/11 06:33:33;;;;;;;4.05;2.15;;;23.70;38.30;;;;;;5070871;28;20044;-55
2021/05/11 06:36:00;;;;;;;5.18;2.25;;;23.70;38.40;;;;;;5070796;28;20056;-56
2021/05/11 06:38:26;;;;;;;6.88;2.80;;;23.80;38.50;;;;;;5071034;28;20505;-55
2021/05/11 06:40:52;;;;;;;6.88;2.70;;;23.70;38.50;;;;;;5070935;28;20059;-56
2021/05/11 06:43:25;;;;;;;6.47;2.60;;;23.70;38.50;;;;;;5071125;28;20103;-55
2021/05/11 06:46:36;;;;;;;4.60;2.60;;;23.70;38.60;;;;;;5070685;28;20082;-55
2021/05/11 06:53:52;;;;;;;6.70;2.92;;;23.80;38.60;;;;;;5070391;28;20541;-55
2021/05/11 06:56:21;;;;;;;9.02;2.92;;;23.80;38.70;;;;;;5051870;28;20052;-55
2021/05/11 06:58:48;;;;;;;5.80;3.05;;;23.80;38.70;;;;;;5068656;28;20074;-55
2021/05/11 07:01:21;;;;;;;6.30;2.60;;;23.80;38.80;;;;;;5069592;28;20486;-55
2021/05/11 07:03:48;;;;;;;5.28;2.17;;;23.80;38.70;;;;;;5070303;28;20024;-56
2021/05/11 07:06:15;;;;;;;11.27;2.80;;;23.90;38.80;;;;;;5070836;28;20039;-55
2021/05/11 07:11:24;;;;;;;9.50;2.30;;;23.90;38.70;;;;;;5070484;28;20036;-55
2021/05/11 07:13:51;;;;;;;4.70;2.20;;;23.90;38.50;;;;;;5070782;28;20060;-55
2021/05/11 07:16:17;;;;;;;7.82;4.65;;;23.90;38.30;;;;;;5070381;28;20124;-56
2021/05/11 07:18:43;;;;;;;8.65;5.15;;;23.90;38.40;;;;;;5070491;28;20032;-56
2021/05/11 07:21:09;;;;;;;9.13;5.25;;;23.90;38.40;;;;;;5070351;28;20037;-55
2021/05/11 07:23:35;;;;;;;5.45;4.20;;;23.90;38.40;;;;;;5070237;28;20094;-56
2021/05/11 07:31:31;;;;;;;6.43;3.50;;;24.00;38.40;;;;;;5070094;28;20044;-56
2021/05/11 07:33:59;;;;;;;6.70;3.70;;;24.00;38.40;;;;;;5070671;28;20029;-56
2021/05/11 07:36:27;;;;;;;11.05;4.72;;;24.00;38.30;;;;;;5069848;28;20409;-56
2021/05/11 07:38:53;;;;;;;19.42;15.02;;;24.00;38.10;;;;;;5070518;28;20123;-57
2021/05/11 07:41:20;;;;;;;15.35;13.70;;;24.00;38.00;;;;;;5052221;28;20131;-56
2021/05/11 07:43:51;;;;;;;18.95;15.18;;;24.00;38.00;;;;;;5070325;28;20131;-57
2021/05/11 07:52:14;;;;;;;31.15;27.80;;;24.00;37.90;;;;;;5070001;28;20071;-58
2021/05/11 08:05:33;;;;;;;13.77;2.53;;;24.00;36.40;;;;;;5069962;28;20055;-56
2021/05/11 08:15:59;;;;;;;20.88;8.90;;;23.80;35.10;;;;;;5073106;28;20111;-55
2021/05/11 08:29:37;;;;;;;9.55;5.25;;;23.80;34.60;;;;;;5030997;28;20065;-56
2021/05/11 08:32:03;;;;;;;4.55;3.50;;;23.80;34.70;;;;;;5030642;28;20037;-54
2021/05/11 08:34:29;;;;;;;4.25;3.30;;;23.80;34.70;;;;;;5031005;28;20045;-56
2021/05/11 08:36:57;;;;;;;5.40;2.83;;;23.80;34.60;;;;;;5030366;28;20049;-56
2021/05/11 08:39:23;;;;;;;5.10;3.20;;;23.80;34.40;;;;;;5030980;28;20097;-56
2021/05/11 08:41:49;;;;;;;5.45;2.95;;;23.80;34.70;;;;;;5030768;28;20042;-56
2021/05/11 08:44:16;;;;;;;12.27;10.02;;;23.90;34.50;;;;;;5030743;28;20480;-56
2021/05/11 08:46:42;;;;;;;32.05;28.98;;;23.90;34.50;;;;;;5030837;28;20042;-54
2021/05/11 08:49:13;;;;;;;17.10;15.30;;;23.90;34.50;;;;;;5030529;28;20163;-55
2021/05/11 09:08:17;;;;;;;12.25;6.32;;;24.00;33.20;;;;;;5072629;28;20055;-55
2021/05/11 09:16:49;;;;;;;5.85;2.83;;;24.10;32.50;;;;;;5072462;28;20045;-55
2021/05/11 09:25:16;;;;;;;6.38;1.92;;;24.20;32.20;;;;;;5072062;28;20120;-54
2021/05/11 09:27:49;;;;;;;2.35;1.50;;;24.10;32.00;;;;;;5053937;28;20458;-55
2021/05/11 09:33:19;;;;;;;3.72;1.40;;;24.20;32.30;;;;;;5072136;28;20040;-56
2021/05/11 10:10:33;;;;;;;4.95;3.58;;;24.60;32.50;;;;;;5053493;28;20494;-55
2021/05/11 10:36:44;;;;;;;24.88;10.63;;;25.00;31.50;;;;;;5070844;28;20056;-55
2021/05/11 10:46:55;;;;;;;9.25;4.07;;;25.10;31.90;;;;;;5070742;28;20043;-56
2021/05/11 10:49:36;;;;;;;7.90;3.70;;;25.20;31.10;;;;;;5070743;28;20033;-56
2021/05/11 10:52:13;;;;;;;9.18;4.80;;;25.30;31.30;;;;;;5070652;28;20497;-56
2021/05/11 10:54:50;;;;;;;3.95;2.30;;;25.30;31.20;;;;;;5052727;28;20048;-55
2021/05/11 10:57:35;;;;;;;13.27;5.10;;;25.30;30.30;;;;;;5070885;28;20139;-56
2021/05/11 11:00:40;;;;;;;19.10;16.92;;;25.30;30.40;;;;;;5052729;28;20051;-56
2021/05/11 11:03:13;;;;;;;19.90;17.02;;;25.30;30.80;;;;;;5052520;28;20037;-55
2021/05/11 11:05:51;;;;;;;8.40;7.50;;;25.40;30.40;;;;;;5070532;28;20098;-56
2021/05/11 11:08:41;;;;;;;13.13;5.95;;;25.40;30.20;;;;;;5070182;28;20068;-55
2021/05/11 11:11:14;;;;;;;5.57;3.05;;;25.40;30.30;;;;;;5070405;28;20113;-56
2021/05/11 11:13:45;;;;;;;17.30;10.90;;;25.40;30.00;;;;;;5070304;28;20113;-55
2021/05/11 11:16:12;;;;;;;13.50;7.97;;;25.50;30.10;;;;;;5070374;28;20036;-56
2021/05/11 11:18:38;;;;;;;10.10;6.35;;;25.50;30.30;;;;;;5070405;28;20041;-56
2021/05/11 11:23:53;;;;;;;8.85;3.03;;;25.50;30.40;;;;;;5070317;28;20047;-56
2021/05/11 11:26:30;;;;;;;4.93;2.10;;;25.60;30.30;;;;;;5070303;28;20036;-56
2021/05/11 11:29:09;;;;;;;1.65;1.33;;;25.70;30.10;;;;;;5070165;28;20045;-55
2021/05/11 11:31:44;;;;;;;6.80;1.83;;;25.70;30.00;;;;;;5070309;28;20036;-56
2021/05/11 11:34:20;;;;;;;2.40;1.67;;;25.70;30.00;;;;;;5070588;28;20037;-56
2021/05/11 11:37:00;;;;;;;2.58;1.05;;;25.80;30.00;;;;;;5070176;28;20387;-56
2021/05/11 11:39:29;;;;;;;5.65;1.10;;;25.80;29.70;;;;;;5069873;28;20146;-53
2021/05/11 11:42:01;;;;;;;4.07;1.10;;;25.80;29.70;;;;;;5070013;28;20074;-54
2021/05/11 11:44:34;;;;;;;3.60;1.05;;;25.80;29.60;;;;;;5071086;28;20083;-54
2021/05/11 11:47:00;;;;;;;5.63;1.23;;;25.80;29.80;;;;;;5073966;28;20039;-54
2021/05/11 11:49:29;;;;;;;2.50;1.38;;;25.90;30.00;;;;;;5073872;28;20132;-54
2021/05/11 11:52:49;;;;;;;2.05;1.27;;;25.90;29.90;;;;;;5073870;28;20040;-54
2021/05/11 11:57:45;;;;;;;4.63;1.13;;;25.90;30.20;;;;;;5073966;28;20044;-54
2021/05/11 12:00:16;;;;;;;2.30;1.30;;;26.00;30.00;;;;;;5073877;28;20139;-53
2021/05/11 12:03:03;;;;;;;2.58;1.30;;;26.00;30.10;;;;;;5073651;28;20032;-53
2021/05/11 12:05:35;;;;;;;3.75;1.08;;;26.00;30.30;;;;;;5073145;28;20037;-54
2021/05/11 12:08:30;;;;;;;1.67;0.90;;;26.00;30.20;;;;;;5073513;28;20048;-53
2021/05/11 12:11:00;;;;;;;1.25;0.80;;;26.00;30.00;;;;;;5072888;28;20044;-53
2021/05/11 12:13:34;;;;;;;4.22;1.83;;;26.10;30.10;;;;;;5073233;28;20449;-54
2021/05/11 12:16:18;;;;;;;1.58;1.02;;;26.10;30.00;;;;;;5073274;28;20119;-54
2021/05/11 12:19:10;;;;;;;1.48;0.80;;;26.10;30.20;;;;;;5073547;28;20638;-54
2021/05/11 12:21:48;;;;;;;3.53;1.17;;;26.20;30.00;;;;;;5073401;28;20069;-54
2021/05/11 12:24:15;;;;;;;3.28;1.20;;;26.20;30.20;;;;;;5073266;28;20035;-55
2021/05/11 12:26:42;;;;;;;2.55;1.00;;;26.30;30.10;;;;;;5073285;28;20103;-54
2021/05/11 12:29:19;;;;;;;2.88;0.95;;;26.20;30.10;;;;;;5072971;28;20086;-54
2021/05/11 12:31:50;;;;;;;2.38;1.10;;;26.30;30.20;;;;;;5073297;28;20508;-55
2021/05/11 12:34:24;;;;;;;2.92;1.20;;;26.30;30.30;;;;;;5073191;28;20043;-55
2021/05/11 12:36:56;;;;;;;2.10;0.95;;;26.30;30.00;;;;;;5054974;28;20052;-55
2021/05/11 12:39:47;;;;;;;1.75;0.73;;;26.40;30.10;;;;;;5073084;28;20033;-55
2021/05/11 12:42:25;;;;;;;5.53;1.38;;;26.40;30.10;;;;;;5073044;28;20111;-55
2021/05/11 12:45:06;;;;;;;3.28;1.00;;;26.40;29.90;;;;;;5072979;28;20037;-55
2021/05/11 12:47:46;;;;;;;2.47;1.25;;;26.50;30.00;;;;;;5073057;28;20462;-54
2021/05/11 12:50:38;;;;;;;3.50;1.23;;;26.50;30.00;;;;;;5072855;28;20389;-55
2021/05/11 12:53:28;;;;;;;4.43;1.10;;;26.50;30.00;;;;;;5072757;28;20032;-55
2021/05/11 13:01:35;;;;;;;3.75;1.40;;;26.60;29.80;;;;;;5072574;28;20048;-55
2021/05/11 13:19:49;;;;;;;8.90;3.83;;;26.80;29.80;;;;;;5072354;28;20072;-55
2021/05/11 13:23:06;;;;;;;5.72;3.78;;;26.90;29.80;;;;;;5072339;28;20474;-54
2021/05/11 13:25:40;;;;;;;5.65;2.67;;;26.90;29.70;;;;;;5072032;28;20037;-54
2021/05/11 13:35:35;;;;;;;6.88;1.83;;;27.10;29.00;;;;;;5071832;28;20421;-54
2021/05/11 13:38:01;;;;;;;6.70;2.05;;;27.10;29.10;;;;;;5071821;28;20062;-54
2021/05/11 13:40:28;;;;;;;3.78;2.10;;;27.10;29.10;;;;;;5071581;28;20028;-54
2021/05/11 13:42:54;;;;;;;5.45;2.22;;;27.10;29.00;;;;;;5071760;28;20041;-54
2021/05/11 13:45:20;;;;;;;5.70;2.30;;;27.20;29.10;;;;;;5053680;28;20033;-53
2021/05/11 13:51:33;;;;;;;12.45;6.95;;;27.30;29.10;;;;;;4993173;28;20038;-55
2021/05/11 13:53:42;;;;;;;9.75;4.47;;;27.30;29.00;;;;;;5001672;28;20496;-56
2021/05/11 14:04:05;;;;;;;5.60;3.38;;;27.40;28.90;;;;;;5009458;28;20037;-54
2021/05/11 14:06:31;;;;;;;4.82;2.53;;;27.40;29.40;;;;;;5009481;28;20078;-53
2021/05/11 14:08:57;;;;;;;4.50;2.80;;;27.40;28.80;;;;;;5008947;28;20404;-54
2021/05/11 14:11:24;;;;;;;5.00;2.40;;;27.40;28.90;;;;;;5009381;28;20492;-55
2021/05/11 14:13:50;;;;;;;4.90;2.50;;;27.40;28.90;;;;;;5009325;28;20511;-55
2021/05/11 14:16:16;;;;;;;6.68;2.35;;;27.40;28.90;;;;;;5009120;28;20049;-55
2021/05/11 14:18:42;;;;;;;7.28;2.60;;;27.40;28.90;;;;;;5009219;28;20034;-55
2021/05/11 14:21:08;;;;;;;8.23;2.83;;;27.40;28.90;;;;;;5028562;28;20036;-55
2021/05/11 14:23:34;;;;;;;6.88;2.03;;;27.40;28.90;;;;;;5071146;28;20028;-55
2021/05/11 14:26:01;;;;;;;4.25;2.72;;;27.40;28.90;;;;;;5070913;28;20090;-54
2021/05/11 14:28:27;;;;;;;4.20;2.25;;;27.50;28.90;;;;;;5070890;28;20127;-54
2021/05/11 14:30:53;;;;;;;3.58;1.75;;;27.50;28.70;;;;;;5070465;28;20044;-55
2021/05/11 14:33:19;;;;;;;3.78;1.67;;;27.50;28.70;;;;;;5070182;28;20044;-54
2021/05/11 14:35:45;;;;;;;2.90;2.00;;;27.50;28.80;;;;;;5070639;28;20135;-54
2021/05/11 14:38:11;;;;;;;3.35;1.40;;;27.50;28.70;;;;;;5070795;28;20115;-54
2021/05/11 14:40:38;;;;;;;5.85;1.67;;;27.50;28.80;;;;;;5070772;28;20032;-54
2021/05/11 14:43:04;;;;;;;3.78;1.60;;;27.50;28.40;;;;;;5070820;28;20028;-54
2021/05/11 14:45:30;;;;;;;35.33;31.45;;;27.60;28.60;;;;;;5070760;28;20500;-56
2021/05/11 14:47:57;;;;;;;76.35;68.60;;;27.50;28.50;;;;;;5070937;28;20581;-54
2021/05/11 14:50:25;;;;;;;63.20;56.55;;;27.50;28.30;;;;;;5070772;28;20034;-55
2021/05/11 14:52:54;;;;;;;55.47;49.63;;;27.50;28.00;;;;;;5069336;28;20041;-55
2021/05/11 14:55:24;;;;;;;51.08;45.38;;;27.50;28.20;;;;;;5070834;28;20067;-55
2021/05/11 14:57:51;;;;;;;44.25;39.08;;;27.50;28.50;;;;;;5070436;28;20033;-55
2021/05/11 15:00:18;;;;;;;37.75;33.25;;;27.40;28.40;;;;;;5070822;28;20434;-55
2021/05/11 15:02:44;;;;;;;31.63;28.27;;;27.40;28.40;;;;;;5070442;28;20040;-55
2021/05/11 15:05:10;;;;;;;36.72;28.38;;;27.40;28.40;;;;;;5070526;28;20128;-54
2021/05/11 15:07:37;;;;;;;32.72;25.70;;;27.40;28.50;;;;;;5069035;28;20033;-54
2021/05/11 15:10:04;;;;;;;20.75;18.55;;;27.40;28.60;;;;;;5070549;28;20115;-56
2021/05/11 15:12:30;;;;;;;16.00;11.13;;;27.40;28.40;;;;;;5069025;28;20374;-55
2021/05/11 15:14:56;;;;;;;15.00;9.95;;;27.30;28.50;;;;;;5070388;28;20504;-55
2021/05/11 15:19:55;;;;;;;5.45;2.53;;;27.30;29.10;;;;;;5070871;28;20114;-54
2021/05/11 15:22:21;;;;;;;7.80;3.95;;;27.20;29.80;;;;;;5074535;28;20036;-55
2021/05/11 15:24:48;;;;;;;7.22;3.63;;;27.20;29.80;;;;;;5074574;28;20032;-54
2021/05/11 15:27:16;;;;;;;5.38;2.67;;;27.20;29.60;;;;;;5074425;28;20037;-55
2021/05/11 15:29:42;;;;;;;8.43;4.40;;;27.20;29.30;;;;;;5074471;28;20139;-55
2021/05/11 15:32:48;;;;;;;8.93;2.75;;;27.10;29.60;;;;;;5074135;28;20036;-55
2021/05/11 15:35:19;;;;;;;5.63;4.43;;;27.10;29.00;;;;;;5074311;28;20033;-56
2021/05/11 15:37:47;;;;;;;15.60;13.65;;;27.10;29.50;;;;;;5074216;28;20040;-55
2021/05/11 15:40:16;;;;;;;15.63;11.23;;;27.10;29.50;;;;;;5074304;28;20047;-55
2021/05/11 15:42:42;;;;;;;8.80;7.07;;;27.10;29.50;;;;;;5072495;28;20108;-53
2021/05/11 15:45:09;;;;;;;8.00;5.68;;;27.10;29.30;;;;;;5072883;28;20044;-55
2021/05/11 15:47:52;;;;;;;10.00;4.15;;;27.10;29.20;;;;;;5071617;28;20413;-54
2021/05/11 15:50:30;;;;;;;6.22;2.95;;;27.10;29.10;;;;;;5071459;28;20506;-54
2021/05/11 15:53:02;;;;;;;4.00;2.75;;;27.10;28.90;;;;;;5072803;28;20465;-55
2021/05/11 15:55:33;;;;;;;3.78;2.67;;;27.10;29.00;;;;;;5072783;28;20029;-54
2021/05/11 15:58:00;;;;;;;5.97;2.45;;;27.10;29.00;;;;;;5072448;28;20083;-55
2021/05/11 16:00:26;;;;;;;6.20;2.33;;;27.10;29.00;;;;;;5072453;28;20044;-54
2021/05/11 16:02:54;;;;;;;1.85;1.50;;;27.00;29.00;;;;;;5072171;28;20041;-54
2021/05/11 16:05:21;;;;;;;10.38;8.38;;;27.00;28.90;;;;;;5072366;28;20037;-58
2021/05/11 16:07:48;;;;;;;9.65;8.68;;;27.00;28.60;;;;;;5073203;28;20103;-59
2021/05/11 16:10:16;;;;;;;11.35;10.13;;;27.10;28.60;;;;;;5074378;28;20028;-60
2021/05/11 16:12:42;;;;;;;11.00;7.60;;;27.10;28.70;;;;;;5074004;28;20033;-60
2021/05/11 16:15:15;;;;;;;7.18;6.53;;;27.00;28.50;;;;;;5074816;28;20048;-60
2021/05/11 16:17:42;;;;;;;6.47;5.40;;;27.00;28.50;;;;;;5074751;28;20397;-59
2021/05/11 16:20:09;;;;;;;4.65;3.85;;;27.00;28.50;;;;;;5073752;28;20469;-59
2021/05/11 16:22:36;;;;;;;6.72;3.00;;;27.00;28.50;;;;;;5073626;28;20094;-59
2021/05/11 16:25:08;;;;;;;9.00;3.05;;;27.00;28.50;;;;;;5073096;28;20029;-59
2021/05/11 16:27:35;;;;;;;2.30;1.70;;;27.00;28.50;;;;;;5074368;28;20095;-59
2021/05/11 16:30:01;;;;;;;3.20;1.50;;;27.00;28.40;;;;;;5068176;28;20358;-59
2021/05/11 16:32:27;;;;;;;4.15;1.58;;;27.00;28.50;;;;;;5074128;28;20332;-59
2021/05/11 16:34:53;;;;;;;5.55;1.38;;;27.00;28.40;;;;;;5074860;28;20072;-59
2021/05/11 16:37:20;;;;;;;3.42;1.15;;;27.00;28.30;;;;;;5074670;28;20051;-59
2021/05/11 16:39:46;;;;;;;4.97;1.65;;;27.00;28.30;;;;;;5074844;28;20036;-60
2021/05/11 16:42:13;;;;;;;1.92;1.40;;;27.00;28.40;;;;;;5073887;28;20051;-59
2021/05/11 16:44:39;;;;;;;18.65;16.75;;;26.90;28.50;;;;;;5074021;28;20045;-59
2021/05/11 16:47:06;;;;;;;29.88;21.25;;;26.90;28.50;;;;;;5074396;28;20028;-58
2021/05/11 16:49:32;;;;;;;16.45;14.75;;;27.00;28.40;;;;;;5074604;28;20040;-59
2021/05/11 16:51:58;;;;;;;16.35;13.88;;;26.90;28.30;;;;;;5066920;28;20517;-59
2021/05/11 16:54:24;;;;;;;11.98;9.80;;;26.90;28.40;;;;;;5094669;28;20028;-59
2021/05/11 16:56:50;;;;;;;8.93;7.15;;;26.90;28.40;;;;;;5066757;28;20047;-53
2021/05/11 16:59:18;;;;;;;7.15;5.82;;;26.90;28.40;;;;;;5072566;28;20124;-53
2021/05/11 17:01:45;;;;;;;4.10;3.70;;;26.90;28.50;;;;;;5073470;28;20021;-54
2021/05/11 17:04:11;;;;;;;3.88;2.65;;;26.90;28.30;;;;;;5072417;28;20029;-54
2021/05/11 17:06:39;;;;;;;4.55;2.00;;;26.90;28.40;;;;;;5088526;28;20116;-54
2021/05/11 17:09:06;;;;;;;4.20;1.58;;;26.90;28.30;;;;;;5072880;28;20488;-60
2021/05/11 17:11:34;;;;;;;3.20;1.27;;;26.90;28.20;;;;;;5048635;28;20453;-58